createdAt,value
2019-02-25T00:00:26.176Z,102355.41
2019-02-25T00:02:56.742Z,102351.21
2019-02-25T00:05:28.360Z,102350.02
2019-02-25T00:07:58.785Z,102346.14
2019-02-25T00:10:29.924Z,102340.00
2019-02-25T00:13:01.478Z,102338.45
2019-02-25T00:15:32.514Z,102345.37
2019-02-25T00:18:03.762Z,102335.72
2019-02-25T00:20:35.523Z,102341.76
2019-02-25T00:23:06.492Z,102327.81
2019-02-25T00:25:38.838Z,102333.86
2019-02-25T00:28:10.274Z,102328.62
2019-02-25T00:30:41.007Z,102324.52
2019-02-25T00:33:16.039Z,102322.95
2019-02-25T00:35:48.612Z,102321.59
2019-02-25T00:38:20.169Z,102319.64
2019-02-25T00:40:51.003Z,102316.81
2019-02-25T00:43:21.834Z,102302.79
2019-02-25T00:45:53.586Z,102290.14
2019-02-25T00:48:24.120Z,102289.86
2019-02-25T00:50:55.467Z,102284.97
2019-02-25T00:53:26.120Z,102271.72
2019-02-25T00:55:56.932Z,102272.14
2019-02-25T00:58:28.416Z,102265.57
2019-02-25T01:01:00.642Z,102267.03
2019-02-25T01:03:34.252Z,102262.07
2019-02-25T01:06:04.985Z,102257.88
2019-02-25T01:08:35.718Z,102253.41
2019-02-25T01:11:09.829Z,102256.13
2019-02-25T01:13:40.802Z,102245.98
2019-02-25T01:16:12.998Z,102245.81
2019-02-25T01:18:45.399Z,102243.30
2019-02-25T01:21:16.960Z,102242.11
2019-02-25T01:23:48.905Z,102236.27
2019-02-25T01:26:20.677Z,102229.08
2019-02-25T01:28:52.944Z,102224.59
2019-02-25T01:31:25.517Z,102221.38
2019-02-25T01:33:56.254Z,102216.14
2019-02-25T01:36:27.500Z,102223.34
2019-02-25T01:38:58.535Z,102219.63
2019-02-25T01:41:29.576Z,102222.08
2019-02-25T01:44:00.307Z,102227.14
2019-02-25T01:46:30.855Z,102221.77
2019-02-25T01:49:03.067Z,102218.16
2019-02-25T01:51:34.581Z,102214.08
2019-02-25T01:54:05.967Z,102215.22
2019-02-25T01:56:36.732Z,102207.25
2019-02-25T01:59:07.871Z,102202.50
2019-02-25T02:01:38.609Z,102205.89
2019-02-25T02:04:10.366Z,102194.53
2019-02-25T02:06:44.064Z,102190.58
2019-02-25T02:09:14.905Z,102201.80
2019-02-25T02:11:46.466Z,102200.92
2019-02-25T02:14:17.598Z,102195.58
2019-02-25T02:16:48.229Z,102205.57
2019-02-25T02:19:21.622Z,102204.91
2019-02-25T02:21:53.075Z,102204.14
2019-02-25T02:24:24.115Z,102197.16
2019-02-25T02:26:54.840Z,102195.79
2019-02-25T02:29:25.778Z,102192.47
2019-02-25T02:31:57.326Z,102184.29
2019-02-25T02:34:28.367Z,102181.18
2019-02-25T02:36:59.995Z,102183.31
2019-02-25T02:39:30.247Z,102178.84
2019-02-25T02:42:15.000Z,102172.41
2019-02-25T02:44:50.752Z,102170.07
2019-02-25T02:47:36.235Z,102163.95
2019-02-25T02:50:15.878Z,102159.16
2019-02-25T02:52:46.914Z,102159.37
2019-02-25T02:55:17.347Z,102150.22
2019-02-25T02:57:48.176Z,102150.92
2019-02-25T03:00:20.142Z,102147.49
2019-02-25T03:02:52.412Z,102141.44
2019-02-25T03:05:23.345Z,102129.48
2019-02-25T03:07:56.125Z,102125.39
2019-02-25T03:10:28.496Z,102122.66
2019-02-25T03:12:58.828Z,102117.70
2019-02-25T03:15:29.960Z,102106.48
2019-02-25T03:18:02.847Z,102098.62
2019-02-25T03:20:34.092Z,102100.91
2019-02-25T03:23:04.721Z,102101.42
2019-02-25T03:25:36.061Z,102096.45
2019-02-25T03:28:07.751Z,102084.49
2019-02-25T03:30:38.560Z,102084.22
2019-02-25T03:33:10.006Z,102074.46
2019-02-25T03:35:40.426Z,102069.77
2019-02-25T03:38:11.847Z,102061.45
2019-02-25T03:40:44.349Z,102058.83
2019-02-25T03:43:17.780Z,102049.51
2019-02-25T03:45:48.354Z,102049.80
2019-02-25T03:48:19.111Z,102035.52
2019-02-25T03:50:50.049Z,102044.45
2019-02-25T03:53:20.774Z,102044.02
2019-02-25T03:55:52.225Z,102039.22
2019-02-25T03:58:22.735Z,102035.84
2019-02-25T04:00:54.410Z,102038.08
2019-02-25T04:03:26.676Z,102044.20
2019-02-25T04:05:58.449Z,102043.91
2019-02-25T04:08:28.754Z,102038.58
2019-02-25T04:10:59.589Z,102038.69
2019-02-25T04:13:33.396Z,102031.55
2019-02-25T04:16:04.438Z,102022.78
2019-02-25T04:18:36.501Z,102018.03
2019-02-25T04:21:07.233Z,102019.56
2019-02-25T04:23:38.371Z,102012.86
2019-02-25T04:26:09.341Z,102012.48
2019-02-25T04:28:39.838Z,102009.27
2019-02-25T04:31:11.782Z,101999.87
2019-02-25T04:33:42.123Z,101987.60
2019-02-25T04:36:14.375Z,101993.81
2019-02-25T04:38:45.094Z,101993.33
2019-02-25T04:41:16.982Z,101993.33
2019-02-25T04:43:47.614Z,101983.23
2019-02-25T04:46:20.700Z,101978.66
2019-02-25T04:48:51.233Z,101979.70
2019-02-25T04:51:22.167Z,101971.36
2019-02-25T04:53:52.817Z,101969.48
2019-02-25T04:56:25.341Z,101975.53
2019-02-25T04:58:59.284Z,101972.70
2019-02-25T05:01:30.932Z,101974.98
2019-02-25T05:04:02.073Z,101974.48
2019-02-25T05:06:35.161Z,101964.53
2019-02-25T05:09:06.546Z,101964.84
2019-02-25T05:11:37.550Z,101957.12
2019-02-25T05:14:11.246Z,101955.57
2019-02-25T05:16:41.790Z,101955.08
2019-02-25T05:19:13.025Z,101960.87
2019-02-25T05:21:43.651Z,101958.20
2019-02-25T05:24:17.043Z,101961.80
2019-02-25T05:26:49.727Z,101963.66
2019-02-25T05:29:20.971Z,101960.54
2019-02-25T05:31:52.526Z,101957.51
2019-02-25T05:34:23.468Z,101956.23
2019-02-25T05:36:56.241Z,101954.11
2019-02-25T05:39:27.385Z,101957.33
2019-02-25T05:41:58.321Z,101956.50
2019-02-25T05:44:29.157Z,101955.67
2019-02-25T05:47:00.091Z,101970.41
2019-02-25T05:49:31.063Z,101961.69
2019-02-25T05:52:01.765Z,101972.53
2019-02-25T05:54:32.497Z,101963.25
2019-02-25T05:57:04.559Z,101957.64
2019-02-25T05:59:36.017Z,101957.86
2019-02-25T06:02:06.640Z,101952.67
2019-02-25T06:04:38.479Z,101961.36
2019-02-25T06:07:10.483Z,101917.61
2019-02-25T06:09:42.318Z,101963.97
2019-02-25T06:12:12.953Z,101964.80
2019-02-25T06:14:43.780Z,101965.22
2019-02-25T06:17:14.611Z,101958.26
2019-02-25T06:19:46.167Z,101959.36
2019-02-25T06:22:16.902Z,101943.52
2019-02-25T06:24:47.753Z,101936.82
2019-02-25T06:27:19.602Z,101940.64
2019-02-25T06:29:50.735Z,101955.64
2019-02-25T06:32:22.495Z,101938.63
2019-02-25T06:34:53.257Z,101928.64
2019-02-25T06:37:27.400Z,101944.35
2019-02-25T06:39:58.140Z,101934.63
2019-02-25T06:42:29.423Z,101923.67
2019-02-25T06:45:00.869Z,101917.01
2019-02-25T06:47:31.295Z,101907.84
2019-02-25T06:50:07.186Z,101904.05
2019-02-25T06:52:37.777Z,101902.22
2019-02-25T06:55:13.431Z,101882.75
2019-02-25T06:57:43.846Z,101889.08
2019-02-25T07:00:16.433Z,101884.14
2019-02-25T07:02:47.565Z,101889.55
2019-02-25T07:05:32.221Z,101885.95
2019-02-25T07:08:13.914Z,101887.45
2019-02-25T07:10:55.813Z,101868.27
2019-02-25T07:13:36.719Z,101872.97
2019-02-25T07:16:25.803Z,101869.49
2019-02-25T07:19:10.604Z,101856.61
2019-02-25T07:21:43.757Z,101843.44
2019-02-25T07:24:28.142Z,101836.35
2019-02-25T07:27:17.003Z,101830.31
2019-02-25T07:29:53.068Z,101830.48
2019-02-25T07:32:41.303Z,101826.94
2019-02-25T07:35:13.576Z,101822.73
2019-02-25T07:37:51.564Z,101812.52
2019-02-25T07:40:29.062Z,101805.21
2019-02-25T07:43:02.464Z,101812.95
2019-02-25T07:45:39.232Z,101813.20
2019-02-25T07:48:21.337Z,101793.11
2019-02-25T07:50:56.977Z,101795.11
2019-02-25T07:53:47.530Z,101792.67
2019-02-25T07:56:23.529Z,101791.69
2019-02-25T07:59:05.423Z,101779.99
2019-02-25T08:01:47.441Z,101765.10
2019-02-25T08:04:27.324Z,101758.91
2019-02-25T08:07:15.612Z,101762.95
2019-02-25T08:09:53.187Z,101750.39
2019-02-25T08:12:26.400Z,101755.85
2019-02-25T08:15:08.963Z,101749.47
2019-02-25T08:17:47.152Z,101755.58
2019-02-25T08:20:23.585Z,101747.64
2019-02-25T08:23:03.629Z,101740.58
2019-02-25T08:25:35.835Z,101737.36
2019-02-25T08:28:09.614Z,101743.42
2019-02-25T08:30:51.942Z,101734.87
2019-02-25T08:33:24.786Z,101726.96
2019-02-25T08:36:03.103Z,101729.63
2019-02-25T08:38:37.719Z,101704.47
2019-02-25T08:41:12.657Z,101700.44
2019-02-25T08:43:48.610Z,101698.63
2019-02-25T08:46:22.826Z,101695.26
2019-02-25T08:49:00.535Z,101682.52
2019-02-25T08:51:32.790Z,101683.75
2019-02-25T08:54:05.569Z,101667.09
2019-02-25T08:56:36.216Z,101664.39
2019-02-25T08:59:07.543Z,101650.85
2019-02-25T09:01:38.018Z,101634.66
2019-02-25T09:04:09.115Z,101626.27
2019-02-25T09:06:40.670Z,101623.89
2019-02-25T09:09:11.062Z,101628.95
2019-02-25T09:11:41.515Z,101624.50
2019-02-25T09:14:13.077Z,101632.34
2019-02-25T09:16:43.903Z,101632.08
2019-02-25T09:19:14.943Z,101606.73
2019-02-25T09:21:47.007Z,101607.25
2019-02-25T09:24:17.432Z,101609.27
2019-02-25T09:26:48.365Z,101612.87
2019-02-25T09:29:20.638Z,101602.72
2019-02-25T09:31:52.490Z,101613.65
2019-02-25T09:34:24.967Z,101606.98
2019-02-25T09:36:56.977Z,101592.57
2019-02-25T09:39:28.378Z,101601.02
2019-02-25T09:41:59.329Z,101597.75
2019-02-25T09:44:31.685Z,101575.83
2019-02-25T09:47:02.113Z,101580.20
2019-02-25T09:49:33.152Z,101574.25
2019-02-25T09:52:03.902Z,101578.03
2019-02-25T09:54:35.655Z,101576.52
2019-02-25T09:57:08.308Z,101568.67
2019-02-25T09:59:40.634Z,101555.44
2019-02-25T10:02:13.294Z,101555.21
2019-02-25T10:04:43.696Z,101544.47
2019-02-25T10:07:15.860Z,101552.61
2019-02-25T10:09:49.189Z,101547.00
2019-02-25T10:12:20.908Z,101527.89
2019-02-25T10:14:51.936Z,101544.52
2019-02-25T10:17:24.192Z,101530.22
2019-02-25T10:19:54.440Z,101534.94
2019-02-25T10:22:27.145Z,101534.16
2019-02-25T10:24:59.185Z,101525.88
2019-02-25T10:27:29.938Z,101529.81
2019-02-25T10:30:04.049Z,101519.48
2019-02-25T10:32:35.475Z,101504.39
2019-02-25T10:35:10.428Z,101505.82
2019-02-25T10:37:45.306Z,101505.25
2019-02-25T10:40:17.778Z,101501.77
2019-02-25T10:42:48.673Z,101497.84
2019-02-25T10:45:20.552Z,101488.74
2019-02-25T10:47:51.678Z,101481.11
2019-02-25T10:50:23.414Z,101466.52
2019-02-25T10:53:03.272Z,101467.49
2019-02-25T10:55:32.545Z,101469.94
2019-02-25T10:58:06.154Z,101465.77
2019-02-25T11:00:37.790Z,101480.70
2019-02-25T11:03:10.719Z,101489.69
2019-02-25T11:05:41.826Z,101502.38
2019-02-25T11:08:14.817Z,101464.08
2019-02-25T11:10:48.650Z,101464.47
2019-02-25T11:13:20.163Z,101463.63
2019-02-25T11:15:52.439Z,101461.32
2019-02-25T11:18:24.539Z,101464.78
2019-02-25T11:21:01.278Z,101477.96
2019-02-25T11:23:32.629Z,101458.09
2019-02-25T11:26:09.239Z,101453.13
2019-02-25T11:28:41.245Z,101459.75
2019-02-25T11:31:11.950Z,101455.94
2019-02-25T11:33:43.639Z,101442.98
2019-02-25T11:36:15.421Z,101428.95
2019-02-25T11:38:47.052Z,101418.42
2019-02-25T11:41:17.994Z,101413.28
2019-02-25T11:43:52.941Z,101416.91
2019-02-25T11:46:22.532Z,101414.52
2019-02-25T11:48:53.269Z,101406.53
2019-02-25T11:51:24.106Z,101397.31
2019-02-25T11:53:56.466Z,101385.00
2019-02-25T11:56:28.433Z,101392.56
2019-02-25T11:58:59.013Z,101393.20
2019-02-25T12:01:29.893Z,101382.63
2019-02-25T12:04:01.957Z,101380.61
2019-02-25T12:06:32.999Z,101385.36
2019-02-25T12:09:06.710Z,101377.05
2019-02-25T12:11:37.637Z,101377.64
2019-02-25T12:14:08.272Z,101378.88
2019-02-25T12:16:39.828Z,101369.02
2019-02-25T12:19:17.801Z,101354.52
2019-02-25T12:21:45.689Z,101349.95
2019-02-25T12:24:16.539Z,101351.49
2019-02-25T12:26:48.744Z,101342.42
2019-02-25T12:29:20.243Z,101348.03
2019-02-25T12:31:53.584Z,101354.66
2019-02-25T12:34:25.188Z,101341.19
2019-02-25T12:36:55.710Z,101340.26
2019-02-25T12:39:27.172Z,101326.72
2019-02-25T12:41:58.201Z,101330.06
2019-02-25T12:44:28.929Z,101333.55
2019-02-25T12:46:59.565Z,101320.72
2019-02-25T12:49:30.313Z,101320.51
2019-02-25T12:52:02.094Z,101324.62
2019-02-25T12:54:32.279Z,101315.51
2019-02-25T12:57:03.319Z,101314.80
2019-02-25T12:59:34.604Z,101318.47
2019-02-25T13:02:05.492Z,101309.53
2019-02-25T13:04:36.946Z,101307.05
2019-02-25T13:07:09.516Z,101290.84
2019-02-25T13:09:39.842Z,101290.77
2019-02-25T13:12:10.576Z,101288.90
2019-02-25T13:14:42.029Z,101289.44
2019-02-25T13:17:14.095Z,101280.94
2019-02-25T13:19:46.971Z,101282.44
2019-02-25T13:22:20.460Z,101273.80
2019-02-25T13:24:51.406Z,101263.19
2019-02-25T13:27:22.771Z,101265.56
2019-02-25T13:29:53.285Z,101261.17
2019-02-25T13:32:25.861Z,101262.34
2019-02-25T13:34:58.342Z,101263.61
2019-02-25T13:37:29.923Z,101252.05
2019-02-25T13:40:02.772Z,101240.34
2019-02-25T13:42:33.101Z,101233.90
2019-02-25T13:45:07.109Z,101227.13
2019-02-25T13:47:38.780Z,101220.99
2019-02-25T13:50:14.713Z,101214.44
2019-02-25T13:52:48.231Z,101203.55
2019-02-25T13:55:19.202Z,101212.65
2019-02-25T13:57:50.079Z,101196.42
2019-02-25T14:00:28.304Z,101202.85
2019-02-25T14:02:59.840Z,101189.67
2019-02-25T14:05:30.878Z,101184.81
2019-02-25T14:08:01.925Z,101174.88
2019-02-25T14:10:32.569Z,101173.59
2019-02-25T14:13:04.100Z,101182.02
2019-02-25T14:15:34.947Z,101176.09
2019-02-25T14:18:05.770Z,101171.34
2019-02-25T14:20:37.419Z,101180.20
2019-02-25T14:23:08.157Z,101172.70
2019-02-25T14:25:41.508Z,101178.33
2019-02-25T14:28:11.210Z,101167.23
2019-02-25T14:30:44.244Z,101168.90
2019-02-25T14:33:17.126Z,101171.84
2019-02-25T14:35:50.309Z,101180.56
2019-02-25T14:38:22.715Z,101169.14
2019-02-25T14:40:56.329Z,101171.78
2019-02-25T14:43:27.462Z,101167.73
2019-02-25T14:45:58.952Z,101159.17
2019-02-25T14:48:32.846Z,101161.64
2019-02-25T14:51:05.162Z,101143.75
2019-02-25T14:53:35.687Z,101152.47
2019-02-25T14:56:07.350Z,101149.37
2019-02-25T14:58:42.607Z,101145.27
2019-02-25T15:01:13.829Z,101136.04
2019-02-25T15:03:47.015Z,101145.77
2019-02-25T15:06:19.980Z,101137.27
2019-02-25T15:08:50.328Z,101139.13
2019-02-25T15:11:21.970Z,101134.02
2019-02-25T15:13:54.345Z,101136.13
2019-02-25T15:16:25.092Z,101147.70
2019-02-25T15:18:58.616Z,101137.41
2019-02-25T15:21:29.017Z,101138.13
2019-02-25T15:24:02.592Z,101132.23
2019-02-25T15:26:42.570Z,101158.95
2019-02-25T15:29:09.221Z,101134.91
2019-02-25T15:31:39.915Z,101139.73
2019-02-25T15:34:13.045Z,101133.91
2019-02-25T15:36:45.794Z,101133.55
2019-02-25T15:39:17.853Z,101139.44
2019-02-25T15:41:49.170Z,101129.28
2019-02-25T15:44:20.559Z,101132.03
2019-02-25T15:46:51.484Z,101132.44
2019-02-25T15:49:24.401Z,101128.84
2019-02-25T15:51:55.505Z,101124.73
2019-02-25T15:54:28.981Z,101115.09
2019-02-25T15:56:58.711Z,101112.56
2019-02-25T17:11:53.452Z,101075.76
2019-02-25T17:14:25.650Z,101069.66
2019-02-25T17:16:57.018Z,101067.84
2019-02-25T17:19:28.408Z,101059.43
2019-02-25T17:21:58.690Z,101051.88
2019-02-25T17:24:32.538Z,101036.02
2019-02-25T17:27:04.562Z,101048.54
2019-02-25T17:29:36.075Z,101031.15
2019-02-25T17:32:08.420Z,101031.15
2019-02-25T17:34:40.151Z,101032.02
2019-02-25T17:37:12.656Z,101025.33
2019-02-25T17:39:44.310Z,101018.34
2019-02-25T17:42:16.891Z,101020.73
2019-02-25T17:44:49.186Z,101016.41
2019-02-25T17:47:24.299Z,101007.55
2019-02-25T17:49:55.686Z,101004.66
2019-02-25T17:52:29.438Z,101000.94
2019-02-25T17:55:02.146Z,100998.10
2019-02-25T17:57:34.967Z,100998.61
2019-02-25T18:00:18.424Z,100986.47
2019-02-25T18:02:48.855Z,100996.37
2019-02-25T18:05:20.821Z,100991.50
2019-02-25T18:07:51.337Z,100992.77
2019-02-25T18:10:23.046Z,100985.65
2019-02-25T18:12:56.367Z,100995.54
2019-02-25T18:15:30.557Z,100992.41
2019-02-25T18:18:01.131Z,100989.36
2019-02-25T18:20:32.277Z,100987.89
2019-02-25T18:23:04.952Z,100980.70
2019-02-25T18:25:37.643Z,100975.78
2019-02-25T18:28:08.480Z,100972.90
2019-02-25T18:30:40.425Z,100977.86
2019-02-25T18:33:11.943Z,100967.77
2019-02-25T18:35:45.732Z,100963.70
2019-02-25T18:38:16.222Z,100960.31
2019-02-25T18:40:46.844Z,100957.73
2019-02-25T18:43:20.054Z,100959.31
2019-02-25T18:45:51.485Z,100956.09
2019-02-25T18:48:24.909Z,100953.75
2019-02-25T18:50:58.504Z,100953.71
2019-02-25T18:53:28.017Z,100945.73
2019-02-25T18:55:58.841Z,100943.33
2019-02-25T18:58:31.005Z,100940.05
2019-02-25T19:01:06.628Z,100935.28
2019-02-25T19:03:37.970Z,100936.48
2019-02-25T19:06:08.294Z,100926.31
2019-02-25T19:08:43.239Z,100931.77
2019-02-25T19:11:15.009Z,100927.85
2019-02-25T19:13:48.229Z,100925.13
2019-02-25T19:16:19.758Z,100928.93
2019-02-25T19:18:51.990Z,100914.84
2019-02-25T19:21:27.518Z,100867.27
2019-02-25T19:23:58.133Z,100915.86
2019-02-25T19:26:29.102Z,100912.69
2019-02-25T19:29:00.652Z,100909.24
2019-02-25T19:31:31.285Z,100904.28
2019-02-25T19:34:05.758Z,100900.11
2019-02-25T19:36:39.060Z,100889.34
2019-02-25T19:39:13.854Z,100891.52
2019-02-25T19:41:45.099Z,100891.39
2019-02-25T19:44:15.500Z,100882.19
2019-02-25T19:46:50.625Z,100880.17
2019-02-25T19:49:23.617Z,100874.20
2019-02-25T19:51:54.152Z,100866.44
2019-02-25T19:54:25.185Z,100857.01
2019-02-25T19:56:57.963Z,100857.52
2019-02-25T19:59:31.016Z,100846.88
2019-02-25T20:02:12.377Z,100836.09
2019-02-25T20:04:45.042Z,100831.21
2019-02-25T20:07:20.085Z,100826.76
2019-02-25T20:09:50.603Z,100823.87
2019-02-25T20:12:21.889Z,100806.28
2019-02-25T20:14:53.365Z,100811.89
2019-02-25T20:17:26.566Z,100791.72
2019-02-25T20:19:56.895Z,100792.58
2019-02-25T20:22:27.709Z,100794.69
2019-02-25T20:24:59.537Z,100791.16
2019-02-25T20:27:30.301Z,100785.75
2019-02-25T20:30:03.164Z,100776.58
2019-02-25T20:32:36.488Z,100775.11
2019-02-25T20:35:10.173Z,100764.99
2019-02-25T20:37:41.442Z,100775.30
2019-02-25T20:40:17.122Z,100766.04
2019-02-25T20:42:49.083Z,100756.47
2019-02-25T20:45:28.029Z,100751.06
2019-02-25T20:48:01.772Z,100750.95
2019-02-25T20:50:32.394Z,100749.20
2019-02-25T20:53:09.178Z,100731.84
2019-02-25T20:55:38.974Z,100732.66
2019-02-25T20:58:11.524Z,100726.45
2019-02-25T21:00:46.371Z,100722.85
2019-02-25T21:03:18.937Z,100716.22
2019-02-25T21:05:51.633Z,100709.62
2019-02-25T21:08:23.809Z,100702.66
2019-02-25T21:10:55.354Z,100700.47
2019-02-25T21:13:28.486Z,100688.40
2019-02-25T21:16:00.416Z,100698.39
2019-02-25T21:18:33.182Z,100687.33
2019-02-25T21:21:05.594Z,100684.51
2019-02-25T21:23:36.185Z,100673.14
2019-02-25T21:26:09.240Z,100670.16
2019-02-25T21:28:40.502Z,100671.46
2019-02-25T21:31:14.587Z,100672.83
2019-02-25T21:33:49.840Z,100663.64
2019-02-25T21:36:18.144Z,100668.53
2019-02-25T21:38:50.023Z,100668.30
2019-02-25T21:41:21.347Z,100667.99
2019-02-25T21:43:54.098Z,100668.30
2019-02-25T21:46:27.007Z,100657.30
2019-02-25T21:49:01.609Z,100656.95
2019-02-25T21:51:35.170Z,100646.67
2019-02-25T21:54:06.763Z,100648.55
2019-02-25T21:56:37.955Z,100640.81
2019-02-25T21:59:14.548Z,100630.93
2019-02-25T22:01:45.022Z,100634.68
2019-02-25T22:04:17.983Z,100626.73
2019-02-25T22:06:50.954Z,100623.80
2019-02-25T22:09:35.465Z,100622.94
2019-02-25T22:11:56.432Z,100620.66
2019-02-25T22:14:27.695Z,100618.11
2019-02-25T22:17:01.008Z,100612.42
2019-02-25T22:19:32.476Z,100608.76
2019-02-25T22:22:04.952Z,100607.20
2019-02-25T22:24:37.946Z,100597.16
2019-02-25T22:27:11.935Z,100596.65
2019-02-25T22:29:43.057Z,100595.24
2019-02-25T22:32:17.466Z,100594.58
2019-02-25T22:34:48.202Z,100596.87
2019-02-25T22:37:22.763Z,100586.81
2019-02-25T22:39:54.538Z,100578.10
2019-02-25T22:42:26.926Z,100567.27
2019-02-25T22:44:57.786Z,100583.42
2019-02-25T22:47:28.414Z,100565.50
2019-02-25T22:49:59.253Z,100561.48
2019-02-25T22:52:31.514Z,100558.23
2019-02-25T22:55:05.949Z,100568.02
2019-02-25T22:57:36.981Z,100562.34
2019-02-25T23:00:22.870Z,100555.00
2019-02-25T23:02:54.614Z,100556.08
2019-02-25T23:05:26.581Z,100558.48
2019-02-25T23:07:59.464Z,100545.83
2019-02-25T23:10:30.709Z,100551.46
2019-02-25T23:13:01.012Z,100558.66
2019-02-25T23:15:33.611Z,100543.95
2019-02-25T23:18:08.106Z,100562.59
2019-02-25T23:20:37.455Z,100564.77
2019-02-25T23:23:08.463Z,100552.02
2019-02-25T23:25:39.711Z,100547.87
2019-02-25T23:28:10.140Z,100550.04
2019-02-25T23:30:40.781Z,100542.58
2019-02-25T23:33:14.448Z,100553.02
2019-02-25T23:35:46.937Z,100545.35
2019-02-25T23:38:18.491Z,100546.01
2019-02-25T23:40:50.934Z,100542.43
2019-02-25T23:43:21.701Z,100547.44
2019-02-25T23:45:53.159Z,100544.45
2019-02-25T23:48:26.449Z,100551.95
2019-02-25T23:50:57.795Z,100547.10
2019-02-25T23:53:32.370Z,100548.18
2019-02-25T23:56:02.940Z,100548.90
2019-02-25T23:58:38.335Z,100544.30
